Time;durP1;ratioP1;P1;durP2;ratioP2;P2;SDS_P1;SDS_P2;PMS_P1;PMS_P2;Temp;Humidity;BMP_temperature;BMP_pressure;BME280_temperature;BME280_humidity;BME280_pressure;Samples;Min_cycle;Max_cycle;Signal;HPM_P1;HPM_P2
2022/01/17 00:00:09;;;;;;;15.25;3.78;;;6.20;84.90;;;;;;5031692;28;20280;-46
2022/01/17 00:02:39;;;;;;;23.05;3.63;;;6.20;84.90;;;;;;5032671;28;20044;-46
2022/01/17 00:05:08;;;;;;;;;;;6.20;84.80;;;;;;5033423;28;20025;-47
2022/01/17 00:07:39;;;;;;;25.60;5.57;;;6.20;84.80;;;;;;5032150;28;20338;-47
2022/01/17 00:10:06;;;;;;;34.67;6.70;;;6.10;84.50;;;;;;5030742;28;20084;-45
2022/01/17 00:12:36;;;;;;;19.52;4.10;;;6.20;84.20;;;;;;5031387;28;20040;-48
2022/01/17 00:15:16;;;;;;;15.68;3.33;;;6.20;84.10;;;;;;5032766;28;20036;-44
2022/01/17 00:17:44;;;;;;;20.55;3.00;;;6.20;83.70;;;;;;5032786;28;20662;-45
2022/01/17 00:20:17;;;;;;;21.00;3.72;;;6.10;83.40;;;;;;5032614;28;20040;-46
2022/01/17 00:22:49;;;;;;;18.92;3.47;;;6.20;83.70;;;;;;5031605;28;20041;-45
2022/01/17 00:25:19;;;;;;;22.55;3.88;;;6.20;83.40;;;;;;5032533;28;20037;-46
2022/01/17 00:27:47;;;;;;;20.52;3.53;;;6.30;83.00;;;;;;5035503;28;20788;-46
2022/01/17 00:30:14;;;;;;;17.38;4.10;;;6.20;83.20;;;;;;5032331;28;20116;-45
2022/01/17 00:32:43;;;;;;;19.73;4.13;;;6.20;83.30;;;;;;5032256;28;20033;-46
2022/01/17 00:35:10;;;;;;;17.15;3.35;;;6.30;83.40;;;;;;5031645;28;20036;-45
2022/01/17 00:37:38;;;;;;;16.50;3.25;;;6.30;83.30;;;;;;5032118;28;20513;-45
2022/01/17 00:40:05;;;;;;;18.02;3.67;;;6.30;83.40;;;;;;5032042;28;20029;-44
2022/01/17 00:42:33;;;;;;;18.35;3.35;;;6.30;83.40;;;;;;5031789;28;20049;-46
2022/01/17 00:45:02;;;;;;;15.77;3.53;;;6.30;83.30;;;;;;5030454;28;20693;-46
2022/01/17 00:47:28;;;;;;;12.68;2.60;;;6.30;83.40;;;;;;5032480;28;20530;-46
2022/01/17 00:49:55;;;;;;;21.85;3.85;;;6.30;83.30;;;;;;5032238;28;20034;-45
2022/01/17 00:52:22;;;;;;;17.95;3.72;;;6.30;83.30;;;;;;5045109;28;20084;-46
2022/01/17 00:54:48;;;;;;;14.70;3.60;;;6.40;83.40;;;;;;5032322;28;20041;-46
2022/01/17 00:57:15;;;;;;;21.00;3.10;;;6.40;83.60;;;;;;5032076;28;20030;-45
2022/01/17 00:59:42;;;;;;;16.02;3.65;;;6.40;83.70;;;;;;5030662;28;20347;-45
2022/01/17 01:02:08;;;;;;;21.95;2.78;;;6.40;83.80;;;;;;5026047;28;20112;-45
2022/01/17 01:04:35;;;;;;;20.95;3.13;;;6.40;84.00;;;;;;5031994;28;20040;-49
2022/01/17 01:07:04;;;;;;;20.38;4.07;;;6.40;84.10;;;;;;5032452;28;20025;-46
2022/01/17 01:09:37;;;;;;;14.10;3.43;;;6.40;84.00;;;;;;5030948;28;20032;-46
2022/01/17 01:12:04;;;;;;;16.02;3.38;;;6.40;84.10;;;;;;5031904;28;20109;-46
2022/01/17 01:14:31;;;;;;;15.60;5.35;;;6.40;84.10;;;;;;5030843;28;20025;-46
2022/01/17 01:17:06;;;;;;;20.23;2.92;;;6.40;84.30;;;;;;5031021;28;20021;-46
2022/01/17 01:19:41;;;;;;;16.10;4.05;;;6.40;84.40;;;;;;5031876;28;20033;-45
2022/01/17 01:27:58;;;;;;;13.55;2.85;;;6.40;84.60;;;;;;5036664;28;20036;-45
2022/01/17 01:30:27;;;;;;;23.20;4.47;;;6.40;84.50;;;;;;5040317;28;20033;-45
2022/01/17 01:32:56;;;;;;;22.35;5.15;;;6.50;84.60;;;;;;5031804;28;20455;-46
2022/01/17 01:35:25;;;;;;;23.58;5.03;;;6.50;84.60;;;;;;5031893;28;20390;-47
2022/01/17 01:37:54;;;;;;;19.38;3.85;;;6.50;84.50;;;;;;5031825;28;20043;-47
2022/01/17 01:40:22;;;;;;;21.70;4.20;;;6.40;84.80;;;;;;5030866;28;20095;-45
2022/01/17 01:42:52;;;;;;;24.35;4.18;;;6.40;84.70;;;;;;5030936;28;20433;-46
2022/01/17 01:45:21;;;;;;;16.75;3.78;;;6.40;84.60;;;;;;5031406;28;20451;-49
2022/01/17 01:47:48;;;;;;;17.23;4.47;;;6.40;84.60;;;;;;5031600;28;20017;-50
2022/01/17 01:50:15;;;;;;;21.73;5.78;;;6.50;84.60;;;;;;5032858;28;20048;-46
2022/01/17 01:52:42;;;;;;;19.35;4.70;;;6.50;84.50;;;;;;5034618;28;20382;-45
2022/01/17 01:55:15;;;;;;;20.33;3.03;;;6.40;84.50;;;;;;5035102;28;20151;-47
2022/01/17 01:57:43;;;;;;;28.27;5.63;;;6.40;84.50;;;;;;5034189;28;20367;-48
2022/01/17 02:00:12;;;;;;;15.55;4.90;;;6.40;84.40;;;;;;5035255;28;20033;-50
2022/01/17 02:02:39;;;;;;;19.23;3.70;;;6.40;84.30;;;;;;5035046;28;20037;-47
2022/01/17 02:05:07;;;;;;;22.98;5.03;;;6.40;84.40;;;;;;5033937;28;20037;-47
2022/01/17 02:07:34;;;;;;;22.38;3.67;;;6.30;84.60;;;;;;5035011;28;20036;-44
2022/01/17 02:10:02;;;;;;;12.55;4.05;;;6.30;84.60;;;;;;5033827;28;20119;-45
2022/01/17 02:12:29;;;;;;;21.90;3.28;;;6.40;84.70;;;;;;5034860;28;20029;-46
2022/01/17 02:14:56;;;;;;;17.13;3.47;;;6.30;84.80;;;;;;5034481;28;20033;-46
2022/01/17 02:17:25;;;;;;;17.85;3.15;;;6.40;84.90;;;;;;5034793;28;20519;-47
2022/01/17 02:20:05;;;;;;;16.70;3.35;;;6.40;85.20;;;;;;5033659;28;20710;-46
2022/01/17 02:22:32;;;;;;;17.08;2.83;;;6.30;85.20;;;;;;5034771;28;20172;-46
2022/01/17 02:24:59;;;;;;;28.50;5.50;;;6.40;85.30;;;;;;5034634;28;20128;-48
2022/01/17 02:27:26;;;;;;;19.35;2.90;;;6.40;85.30;;;;;;5037957;28;20433;-49
2022/01/17 02:29:53;;;;;;;15.13;3.00;;;6.40;85.40;;;;;;5044855;28;20419;-45
2022/01/17 02:32:20;;;;;;;22.35;3.97;;;6.40;85.40;;;;;;5033786;28;20029;-45
2022/01/17 02:34:47;;;;;;;24.35;4.93;;;6.40;85.40;;;;;;5034479;28;20037;-46
2022/01/17 02:37:15;;;;;;;22.30;4.07;;;6.40;85.20;;;;;;5033619;28;20080;-45
2022/01/17 02:39:41;;;;;;;16.52;3.38;;;6.40;85.10;;;;;;5034174;28;20183;-46
2022/01/17 02:42:11;;;;;;;21.25;4.57;;;6.40;85.10;;;;;;5032991;28;20046;-46
2022/01/17 02:44:44;;;;;;;20.77;3.05;;;6.30;85.20;;;;;;5034104;28;20041;-46
2022/01/17 02:47:15;;;;;;;23.77;5.13;;;6.40;85.30;;;;;;5034094;28;20156;-46
2022/01/17 02:49:42;;;;;;;23.73;3.83;;;6.40;85.10;;;;;;5034339;28;20093;-46
2022/01/17 02:52:09;;;;;;;17.35;3.63;;;6.40;85.10;;;;;;5034384;28;20048;-46
2022/01/17 02:54:36;;;;;;;24.92;4.93;;;6.40;85.10;;;;;;5043369;28;20064;-46
2022/01/17 02:57:07;;;;;;;20.38;4.35;;;6.30;85.30;;;;;;5014317;28;20030;-46
2022/01/17 02:59:36;;;;;;;17.85;4.32;;;6.40;85.10;;;;;;5028620;28;20506;-45
2022/01/17 03:02:03;;;;;;;20.75;5.13;;;6.40;85.20;;;;;;5033556;28;20057;-45
2022/01/17 03:04:30;;;;;;;17.30;4.10;;;6.40;85.00;;;;;;5033827;28;20045;-45
2022/01/17 03:06:57;;;;;;;24.75;4.82;;;6.40;85.00;;;;;;5032731;28;20460;-45
2022/01/17 03:09:25;;;;;;;19.17;3.95;;;6.40;85.10;;;;;;5033674;28;20046;-46
2022/01/17 03:11:52;;;;;;;13.98;2.83;;;6.40;85.10;;;;;;5033803;28;20032;-47
2022/01/17 03:14:21;;;;;;;15.88;2.85;;;6.40;85.10;;;;;;5033685;28;20398;-45
2022/01/17 03:16:49;;;;;;;25.05;5.35;;;6.40;85.00;;;;;;5033788;28;20057;-46
2022/01/17 03:19:18;;;;;;;20.83;4.38;;;6.40;85.00;;;;;;5033881;28;20025;-47
2022/01/17 03:21:45;;;;;;;10.80;3.45;;;6.50;84.90;;;;;;5032593;28;20095;-45
2022/01/17 03:24:12;;;;;;;21.40;4.50;;;6.40;85.10;;;;;;5032988;28;20124;-47
2022/01/17 03:26:37;;;;;;;21.50;3.08;;;6.40;85.00;;;;;;5032965;28;20129;-45
2022/01/17 03:29:07;;;;;;;15.02;3.75;;;6.40;85.10;;;;;;5064925;28;20502;-46
2022/01/17 03:31:34;;;;;;;16.20;3.80;;;6.40;85.30;;;;;;5030722;28;20030;-47
2022/01/17 03:34:03;;;;;;;25.42;4.20;;;6.40;85.20;;;;;;5033583;28;20072;-48
2022/01/17 03:36:29;;;;;;;21.83;4.57;;;6.40;85.40;;;;;;5032570;28;20033;-47
2022/01/17 03:38:56;;;;;;;18.83;3.72;;;6.50;85.40;;;;;;5032506;28;20120;-46
2022/01/17 03:41:23;;;;;;;17.02;3.05;;;6.50;85.50;;;;;;5033242;28;20129;-46
2022/01/17 03:43:53;;;;;;;19.20;3.67;;;6.50;85.60;;;;;;5032256;28;20060;-48
2022/01/17 03:46:20;;;;;;;30.48;5.57;;;6.40;85.80;;;;;;5033079;28;20110;-46
2022/01/17 03:48:46;;;;;;;24.50;4.28;;;6.50;85.80;;;;;;5033566;28;20339;-46
2022/01/17 03:51:13;;;;;;;20.85;3.70;;;6.50;85.80;;;;;;5031806;28;20029;-46
2022/01/17 03:53:40;;;;;;;20.63;4.20;;;6.50;86.00;;;;;;5048789;28;20048;-47
2022/01/17 03:56:06;;;;;;;23.10;4.90;;;6.50;86.00;;;;;;5032816;28;20108;-46
2022/01/17 03:58:33;;;;;;;18.23;3.75;;;6.60;86.10;;;;;;5032032;28;20045;-49
2022/01/17 04:01:02;;;;;;;25.60;4.40;;;6.60;86.10;;;;;;5032345;28;20044;-47
2022/01/17 04:03:29;;;;;;;26.63;5.45;;;6.60;86.20;;;;;;5032800;28;20029;-44
2022/01/17 04:05:56;;;;;;;22.38;4.63;;;6.60;86.30;;;;;;5032193;28;20116;-46
2022/01/17 04:08:23;;;;;;;26.77;4.95;;;6.60;86.30;;;;;;5032766;28;20485;-46
2022/01/17 04:10:50;;;;;;;21.63;4.68;;;6.60;86.40;;;;;;5032704;28;20080;-47
2022/01/17 04:13:16;;;;;;;21.25;4.85;;;6.60;86.40;;;;;;5031896;28;20037;-46
2022/01/17 04:15:43;;;;;;;18.58;3.97;;;6.70;86.40;;;;;;5031843;28;20035;-46
2022/01/17 04:18:11;;;;;;;21.02;4.07;;;6.70;86.50;;;;;;5032748;28;20033;-46
2022/01/17 04:20:40;;;;;;;16.30;4.85;;;6.70;86.50;;;;;;5032440;28;20030;-46
2022/01/17 04:23:09;;;;;;;27.05;4.30;;;6.70;86.50;;;;;;5031385;28;20083;-49
2022/01/17 04:25:44;;;;;;;21.40;3.97;;;6.70;86.50;;;;;;5032441;28;20159;-46
2022/01/17 04:28:13;;;;;;;22.75;4.30;;;6.70;86.50;;;;;;5038740;28;20029;-45
2022/01/17 04:30:41;;;;;;;22.60;5.43;;;6.80;86.50;;;;;;5039478;28;20111;-48
2022/01/17 04:33:09;;;;;;;22.65;5.55;;;6.70;86.60;;;;;;5033208;28;20018;-46
2022/01/17 04:35:36;;;;;;;16.92;4.05;;;6.80;86.60;;;;;;5028710;28;20110;-45
2022/01/17 04:38:08;;;;;;;29.58;4.63;;;6.80;86.40;;;;;;5033068;28;20033;-46
2022/01/17 04:40:38;;;;;;;22.30;5.15;;;6.80;86.50;;;;;;5032119;28;20037;-45
2022/01/17 04:46:11;;;;;;;22.17;3.92;;;6.90;86.40;;;;;;5023021;28;20432;-45
2022/01/17 04:48:38;;;;;;;26.25;5.82;;;6.80;86.40;;;;;;5025889;28;20044;-46
2022/01/17 04:51:06;;;;;;;21.92;5.20;;;6.80;86.40;;;;;;5033448;28;20124;-46
2022/01/17 04:53:34;;;;;;;24.90;4.80;;;6.90;86.40;;;;;;5033199;28;20045;-45
2022/01/17 04:55:59;;;;;;;19.48;5.38;;;6.90;86.30;;;;;;5032756;28;20385;-46
2022/01/17 04:58:26;;;;;;;19.80;4.53;;;6.90;86.40;;;;;;5048303;28;20026;-45
2022/01/17 05:00:53;;;;;;;24.38;6.95;;;6.90;86.30;;;;;;5033273;28;20454;-46
2022/01/17 05:03:37;;;;;;;18.17;4.78;;;6.90;86.30;;;;;;5033060;28;20052;-46
2022/01/17 05:06:04;;;;;;;20.13;4.38;;;6.90;86.40;;;;;;5032820;28;20030;-47
2022/01/17 05:08:30;;;;;;;22.45;5.25;;;6.90;86.40;;;;;;5027349;28;20040;-46
2022/01/17 05:10:57;;;;;;;20.75;4.75;;;6.90;86.50;;;;;;5032234;28;20044;-46
2022/01/17 05:13:31;;;;;;;20.10;5.10;;;6.90;86.70;;;;;;5043075;28;20025;-46
2022/01/17 05:16:08;;;;;;;27.23;5.13;;;6.90;86.90;;;;;;5033561;28;20033;-45
2022/01/17 05:21:02;;;;;;;31.27;6.85;;;6.90;87.00;;;;;;5033452;28;20431;-46
2022/01/17 05:23:29;;;;;;;23.05;4.78;;;6.90;87.10;;;;;;5045286;28;20091;-46
2022/01/17 05:25:56;;;;;;;19.08;5.25;;;6.90;87.20;;;;;;5031436;28;20120;-45
2022/01/17 05:28:23;;;;;;;23.42;4.70;;;6.90;87.40;;;;;;5044087;28;20033;-46
2022/01/17 05:30:50;;;;;;;21.85;5.10;;;6.90;87.40;;;;;;5036414;28;20052;-46
2022/01/17 05:33:17;;;;;;;23.45;7.07;;;6.90;87.50;;;;;;5036821;28;20037;-45
2022/01/17 05:35:44;;;;;;;26.27;5.68;;;6.90;87.70;;;;;;5036584;28;20045;-46
2022/01/17 05:38:12;;;;;;;20.23;4.68;;;6.90;87.90;;;;;;5036415;28;20045;-45
2022/01/17 05:40:38;;;;;;;33.67;8.45;;;6.90;87.80;;;;;;5036383;28;20029;-46
2022/01/17 05:43:05;;;;;;;30.55;6.45;;;6.90;87.80;;;;;;5036261;28;20119;-45
2022/01/17 05:45:32;;;;;;;20.00;5.32;;;6.90;87.80;;;;;;5036162;28;20071;-46
2022/01/17 05:47:58;;;;;;;21.42;5.65;;;6.90;87.90;;;;;;5036673;28;20343;-46
2022/01/17 05:50:24;;;;;;;24.70;5.10;;;7.00;87.80;;;;;;5052219;28;20026;-45
2022/01/17 05:52:51;;;;;;;27.35;5.45;;;7.00;87.90;;;;;;5036231;28;20044;-45
2022/01/17 05:55:19;;;;;;;22.38;5.35;;;7.00;88.00;;;;;;5036032;28;20038;-46
2022/01/17 05:57:49;;;;;;;20.83;6.47;;;7.00;88.00;;;;;;5034980;28;20056;-46
2022/01/17 06:00:16;;;;;;;43.08;7.10;;;7.00;88.00;;;;;;5034970;28;20459;-47
2022/01/17 06:02:43;;;;;;;29.80;5.22;;;7.00;88.00;;;;;;5035813;28;20057;-49
2022/01/17 06:05:12;;;;;;;24.85;5.30;;;7.00;88.10;;;;;;5033818;28;20379;-48
2022/01/17 06:07:38;;;;;;;33.72;6.95;;;7.00;88.10;;;;;;5033395;28;20021;-49
2022/01/17 06:10:05;;;;;;;33.90;5.43;;;7.00;88.20;;;;;;5034953;28;20099;-46
2022/01/17 06:12:35;;;;;;;37.47;7.88;;;7.00;88.30;;;;;;5027096;28;20041;-51
2022/01/17 06:15:03;;;;;;;32.95;6.97;;;7.00;88.40;;;;;;5033566;28;20348;-46
2022/01/17 06:17:29;;;;;;;33.45;8.52;;;7.00;88.40;;;;;;5035433;28;20029;-45
2022/01/17 06:19:54;;;;;;;32.00;6.65;;;7.00;88.40;;;;;;5018209;28;20048;-47
2022/01/17 06:22:20;;;;;;;28.02;5.97;;;7.00;88.30;;;;;;5035502;28;20054;-46
2022/01/17 06:24:47;;;;;;;31.10;5.82;;;7.00;88.40;;;;;;5035400;28;20036;-46
2022/01/17 06:27:14;;;;;;;41.85;8.00;;;7.00;88.60;;;;;;5036683;28;20039;-48
2022/01/17 06:29:40;;;;;;;27.83;6.28;;;7.00;88.70;;;;;;5040235;28;20032;-46
2022/01/17 06:32:08;;;;;;;31.25;8.13;;;7.00;88.90;;;;;;5035107;28;20037;-47
2022/01/17 06:34:35;;;;;;;35.85;6.95;;;7.00;88.90;;;;;;5035274;28;20455;-46
2022/01/17 06:37:02;;;;;;;38.58;7.82;;;7.00;89.00;;;;;;5035311;28;20064;-46
2022/01/17 06:39:30;;;;;;;38.85;8.27;;;7.00;89.20;;;;;;5035425;28;20413;-48
2022/01/17 06:41:57;;;;;;;23.50;6.38;;;6.90;89.40;;;;;;5035389;28;20045;-45
2022/01/17 06:44:24;;;;;;;50.35;8.65;;;7.00;89.50;;;;;;5034628;28;20045;-45
2022/01/17 06:46:51;;;;;;;33.63;6.50;;;7.00;89.60;;;;;;5034527;28;20502;-45
2022/01/17 06:49:17;;;;;;;41.28;9.23;;;7.00;89.70;;;;;;5034807;28;20037;-46
2022/01/17 06:51:44;;;;;;;38.65;7.20;;;7.00;89.80;;;;;;5034848;28;20030;-45
2022/01/17 06:54:11;;;;;;;41.20;7.60;;;7.00;89.80;;;;;;5034475;28;20044;-44
2022/01/17 06:56:43;;;;;;;33.00;6.60;;;7.00;90.00;;;;;;5034290;28;20053;-47
2022/01/17 06:59:11;;;;;;;38.15;7.85;;;7.00;89.90;;;;;;5032707;28;20340;-46
2022/01/17 07:01:38;;;;;;;34.65;8.77;;;7.00;89.90;;;;;;5034043;28;20358;-49
2022/01/17 07:04:06;;;;;;;30.08;7.28;;;7.00;90.00;;;;;;5033491;28;20332;-45
2022/01/17 07:06:33;;;;;;;38.85;7.88;;;7.10;90.00;;;;;;5033812;28;20022;-45
2022/01/17 07:09:01;;;;;;;31.17;6.93;;;7.10;90.00;;;;;;5033789;28;20026;-50
2022/01/17 07:11:30;;;;;;;48.88;9.40;;;7.10;89.90;;;;;;5034090;28;20056;-45
2022/01/17 07:13:57;;;;;;;41.97;8.88;;;7.10;89.80;;;;;;5031762;28;20033;-45
2022/01/17 07:16:24;;;;;;;40.17;6.72;;;7.20;89.80;;;;;;5032993;28;20044;-47
2022/01/17 07:18:52;;;;;;;37.42;7.05;;;7.20;89.70;;;;;;5033592;28;20474;-45
2022/01/17 07:21:18;;;;;;;38.75;7.28;;;7.20;89.70;;;;;;5034229;28;20073;-46
2022/01/17 07:23:43;;;;;;;34.63;6.28;;;7.20;89.70;;;;;;5033680;28;20048;-45
2022/01/17 07:26:10;;;;;;;43.55;10.70;;;7.20;89.70;;;;;;5034217;28;20033;-50
2022/01/17 07:28:39;;;;;;;42.80;7.97;;;7.20;89.70;;;;;;5047269;28;20025;-45
2022/01/17 07:31:06;;;;;;;44.97;9.90;;;7.20;89.70;;;;;;5034561;28;20030;-50
2022/01/17 07:33:37;;;;;;;39.58;8.43;;;7.30;89.80;;;;;;5022589;28;20053;-44
2022/01/17 07:36:05;;;;;;;35.60;7.57;;;7.30;89.90;;;;;;5033760;28;20044;-46
2022/01/17 07:38:34;;;;;;;32.85;7.35;;;7.30;89.90;;;;;;5030609;28;20045;-46
2022/01/17 07:41:02;;;;;;;36.30;8.70;;;7.30;90.00;;;;;;5031157;28;20124;-50
2022/01/17 07:43:31;;;;;;;53.22;10.07;;;7.30;90.00;;;;;;5027679;28;20292;-46
2022/01/17 07:46:13;;;;;;;34.58;7.18;;;7.30;90.10;;;;;;5034842;28;20041;-46
2022/01/17 07:48:58;;;;;;;50.80;10.45;;;7.20;90.40;;;;;;5033083;28;20026;-47
2022/01/17 07:51:26;;;;;;;45.67;9.48;;;7.20;90.50;;;;;;5034152;28;20042;-45
2022/01/17 07:53:54;;;;;;;48.53;8.85;;;7.20;90.70;;;;;;5034051;28;20382;-46
2022/01/17 07:56:21;;;;;;;44.55;9.75;;;7.20;90.80;;;;;;5034026;28;20029;-45
2022/01/17 07:58:48;;;;;;;41.65;8.20;;;7.20;90.80;;;;;;5034058;28;20056;-46
2022/01/17 08:01:14;;;;;;;52.00;10.02;;;7.20;90.80;;;;;;5033901;28;20048;-46
2022/01/17 08:03:41;;;;;;;36.53;8.45;;;7.30;90.60;;;;;;5033747;28;20159;-46
2022/01/17 08:06:08;;;;;;;36.15;8.32;;;7.30;90.60;;;;;;5027989;28;20458;-46
2022/01/17 08:08:35;;;;;;;48.35;9.82;;;7.40;90.60;;;;;;5027468;28;20026;-49
2022/01/17 08:11:02;;;;;;;46.63;9.68;;;7.40;90.60;;;;;;5032494;28;20462;-45
2022/01/17 08:13:29;;;;;;;44.83;8.10;;;7.40;90.50;;;;;;5032865;28;20037;-45
2022/01/17 08:15:56;;;;;;;41.25;9.70;;;7.40;90.40;;;;;;5028673;28;20467;-45
2022/01/17 08:18:23;;;;;;;38.67;8.35;;;7.40;90.30;;;;;;5030018;28;20042;-46
2022/01/17 08:20:50;;;;;;;51.13;9.93;;;7.40;90.30;;;;;;5032990;28;20041;-45
2022/01/17 08:23:16;;;;;;;38.55;7.95;;;7.40;90.20;;;;;;5030214;28;20141;-51
2022/01/17 08:25:43;;;;;;;46.05;8.13;;;7.50;90.00;;;;;;5027232;28;20035;-48
2022/01/17 08:28:10;;;;;;;55.30;10.70;;;7.50;89.90;;;;;;5032812;28;20037;-46
2022/01/17 08:30:37;;;;;;;44.22;9.57;;;7.50;89.80;;;;;;5032928;28;20111;-50
2022/01/17 08:33:06;;;;;;;45.25;9.75;;;7.50;89.70;;;;;;5032575;28;20405;-47
2022/01/17 08:35:33;;;;;;;53.20;10.93;;;7.60;89.60;;;;;;5032368;28;20482;-47
2022/01/17 08:38:00;;;;;;;49.08;9.88;;;7.60;89.60;;;;;;5032877;28;20029;-46
2022/01/17 08:40:27;;;;;;;42.05;9.40;;;7.60;90.00;;;;;;5032187;28;20029;-46
2022/01/17 08:42:55;;;;;;;39.72;11.38;;;7.60;90.10;;;;;;5032139;28;20053;-48
2022/01/17 08:45:23;;;;;;;42.05;9.60;;;7.60;90.20;;;;;;5031804;28;20060;-48
2022/01/17 08:47:52;;;;;;;48.90;10.88;;;7.60;90.10;;;;;;5032484;28;20492;-46
2022/01/17 08:50:22;;;;;;;47.43;10.90;;;7.60;90.10;;;;;;5032823;28;20470;-48
2022/01/17 08:52:49;;;;;;;;;;;7.60;90.20;;;;;;5033560;28;20276;-44
2022/01/17 08:55:17;;;;;;;55.00;10.07;;;7.60;90.50;;;;;;5032588;28;19912;-44
2022/01/17 08:57:44;;;;;;;48.03;11.15;;;7.60;90.90;;;;;;5032660;28;20462;-45
2022/01/17 09:00:14;;;;;;;46.03;9.30;;;7.50;91.20;;;;;;5033428;28;20029;-44
2022/01/17 09:02:40;;;;;;;45.95;10.13;;;7.50;91.30;;;;;;5036684;28;20095;-44
2022/01/17 09:05:08;;;;;;;51.50;11.75;;;7.40;91.40;;;;;;5034936;28;20057;-45
2022/01/17 09:07:35;;;;;;;49.13;11.38;;;7.50;91.40;;;;;;5035895;28;20120;-46
2022/01/17 09:10:03;;;;;;;50.47;11.13;;;7.50;91.30;;;;;;5018109;28;20109;-49
2022/01/17 09:12:30;;;;;;;56.83;11.95;;;7.50;91.40;;;;;;5027189;28;20025;-47
2022/01/17 09:14:58;;;;;;;52.47;10.63;;;7.50;91.60;;;;;;5036662;28;20076;-48
2022/01/17 09:17:24;;;;;;;48.75;11.07;;;7.40;91.80;;;;;;5035941;28;20037;-50
2022/01/17 09:19:53;;;;;;;58.97;10.55;;;7.40;91.90;;;;;;5036078;28;20064;-57
2022/01/17 09:22:20;;;;;;;46.70;10.57;;;7.40;91.90;;;;;;5032931;28;20034;-54
2022/01/17 09:24:46;;;;;;;57.35;10.35;;;7.50;91.90;;;;;;5035667;28;20355;-54
2022/01/17 09:27:16;;;;;;;59.25;9.77;;;7.50;91.80;;;;;;5035828;28;20037;-53
2022/01/17 09:29:43;;;;;;;60.30;10.38;;;7.50;91.80;;;;;;5036113;28;20041;-50
2022/01/17 09:32:09;;;;;;;49.05;11.95;;;7.50;91.70;;;;;;5035102;28;20063;-46
2022/01/17 09:34:35;;;;;;;55.15;13.18;;;7.50;91.60;;;;;;5034777;28;20041;-50
2022/01/17 09:37:02;;;;;;;58.28;11.70;;;7.60;91.70;;;;;;5034754;28;20041;-46
2022/01/17 09:39:29;;;;;;;54.28;11.60;;;7.70;91.80;;;;;;5035534;28;20040;-57
2022/01/17 09:41:54;;;;;;;65.90;11.38;;;7.70;91.80;;;;;;5035841;28;20107;-52
2022/01/17 09:44:21;;;;;;;49.53;11.30;;;7.70;91.90;;;;;;5035314;28;20523;-52
2022/01/17 09:46:52;;;;;;;55.08;11.13;;;7.70;91.90;;;;;;5018177;28;20040;-51
2022/01/17 09:49:39;;;;;;;48.33;11.18;;;7.70;91.80;;;;;;5035735;28;20030;-51
2022/01/17 09:52:45;;;;;;;64.85;10.63;;;7.60;91.70;;;;;;5035418;28;20021;-48
2022/01/17 09:55:24;;;;;;;54.92;10.02;;;7.70;91.60;;;;;;5034252;28;20045;-51
2022/01/17 09:58:09;;;;;;;48.45;10.43;;;7.80;91.50;;;;;;5035535;28;20514;-47
2022/01/17 10:00:43;;;;;;;55.35;12.93;;;7.80;91.40;;;;;;5035675;28;20108;-47
2022/01/17 10:03:17;;;;;;;49.03;9.80;;;7.90;91.20;;;;;;5035512;28;20025;-47
2022/01/17 10:05:43;;;;;;;59.75;12.75;;;8.00;91.20;;;;;;5034470;28;20068;-47
2022/01/17 10:08:27;;;;;;;59.10;12.15;;;8.10;90.90;;;;;;5035627;28;20092;-49
2022/01/17 10:11:15;;;;;;;63.90;12.65;;;8.10;90.70;;;;;;5033149;28;20026;-46
2022/01/17 10:13:48;;;;;;;59.15;11.98;;;8.10;90.60;;;;;;5034357;28;20366;-46
2022/01/17 10:16:33;;;;;;;72.25;15.93;;;8.00;90.50;;;;;;5035232;28;20025;-46
2022/01/17 10:19:18;;;;;;;68.88;12.48;;;8.00;90.50;;;;;;5029389;28;20351;-46
2022/01/17 10:21:49;;;;;;;64.85;10.73;;;8.00;90.60;;;;;;5034075;28;20045;-46
2022/01/17 10:35:30;;;;;;;42.03;10.70;;;7.80;91.50;;;;;;5035208;28;20032;-52
2022/01/17 10:38:21;;;;;;;56.47;10.30;;;7.80;91.40;;;;;;5034920;28;20021;-51
2022/01/17 10:41:07;;;;;;;57.30;11.43;;;7.80;91.30;;;;;;5034148;28;20018;-49
2022/01/17 10:43:38;;;;;;;53.25;9.52;;;7.70;91.10;;;;;;5034245;28;20451;-51
2022/01/17 10:46:10;;;;;;;36.83;6.90;;;7.60;90.80;;;;;;5034891;28;20447;-50
2022/01/17 10:48:44;;;;;;;40.50;9.48;;;7.50;90.50;;;;;;5034555;28;20026;-50
2022/01/17 10:51:13;;;;;;;42.00;7.95;;;7.50;90.50;;;;;;5034548;28;20030;-50
2022/01/17 10:53:40;;;;;;;32.47;7.35;;;7.50;90.80;;;;;;5033495;28;20030;-46
2022/01/17 10:56:11;;;;;;;39.90;6.57;;;7.50;90.40;;;;;;5034779;28;20053;-50
2022/01/17 10:58:41;;;;;;;30.58;7.00;;;7.60;90.20;;;;;;5031121;28;20044;-49
2022/01/17 11:01:13;;;;;;;23.63;4.28;;;7.60;89.70;;;;;;5033926;28;20033;-49
2022/01/17 11:03:47;;;;;;;47.40;6.57;;;7.60;89.40;;;;;;5034511;28;20455;-46
2022/01/17 11:06:22;;;;;;;25.50;3.78;;;7.70;88.80;;;;;;5031388;28;20112;-46
2022/01/17 11:08:52;;;;;;;20.85;4.95;;;7.70;88.70;;;;;;5034755;28;20029;-45
2022/01/17 11:11:24;;;;;;;20.60;6.35;;;7.90;88.80;;;;;;5033464;28;20022;-45
2022/01/17 11:13:54;;;;;;;18.35;3.70;;;7.90;87.60;;;;;;5032971;28;20037;-47
2022/01/17 11:16:22;;;;;;;15.88;2.65;;;8.00;87.40;;;;;;5033582;28;20037;-45
2022/01/17 11:19:00;;;;;;;13.93;3.10;;;7.90;86.80;;;;;;5034050;28;20068;-46
2022/01/17 11:21:27;;;;;;;15.85;3.70;;;7.90;87.00;;;;;;5032624;28;20061;-47
2022/01/17 11:23:54;;;;;;;14.07;3.60;;;7.90;86.90;;;;;;5031984;28;20038;-49
2022/01/17 11:26:23;;;;;;;14.60;3.60;;;7.90;86.40;;;;;;5032794;28;20037;-49
2022/01/17 11:28:54;;;;;;;12.40;3.25;;;8.00;86.80;;;;;;5032262;28;20048;-46
2022/01/17 11:31:20;;;;;;;22.10;5.85;;;8.00;86.90;;;;;;5031195;28;20060;-49
2022/01/17 11:33:47;;;;;;;16.00;3.80;;;8.00;86.90;;;;;;5031770;28;20049;-46
2022/01/17 11:36:18;;;;;;;21.83;4.20;;;8.00;87.00;;;;;;5035879;28;20057;-45
2022/01/17 11:38:48;;;;;;;22.75;4.22;;;8.00;87.00;;;;;;5032146;28;20037;-45
2022/01/17 11:41:34;;;;;;;19.25;4.50;;;8.10;86.60;;;;;;5032319;28;20463;-44
2022/01/17 11:44:08;;;;;;;16.67;3.38;;;8.10;86.30;;;;;;5030470;28;20038;-43
2022/01/17 11:46:48;;;;;;;20.58;4.97;;;8.10;86.80;;;;;;5033140;28;20084;-44
2022/01/17 11:49:31;;;;;;;25.88;5.82;;;8.10;86.60;;;;;;5031195;28;20033;-44
2022/01/17 11:51:58;;;;;;;21.35;4.95;;;8.00;87.00;;;;;;5030293;28;20479;-45
2022/01/17 11:54:29;;;;;;;22.85;3.08;;;7.90;86.80;;;;;;5033290;28;20052;-44
2022/01/17 11:57:02;;;;;;;17.10;3.60;;;7.80;86.80;;;;;;5033629;28;20056;-45
2022/01/17 11:59:35;;;;;;;24.27;4.43;;;7.70;86.90;;;;;;5032466;28;20025;-46
2022/01/17 12:02:33;;;;;;;19.10;3.67;;;7.60;87.00;;;;;;5033274;28;20462;-47
2022/01/17 12:05:08;;;;;;;12.32;3.30;;;7.50;87.20;;;;;;5031413;28;20492;-47
2022/01/17 12:07:56;;;;;;;24.63;7.35;;;7.50;87.50;;;;;;5032994;28;20044;-45
2022/01/17 12:10:42;;;;;;;27.88;7.25;;;7.70;87.40;;;;;;5030071;28;20044;-46
2022/01/17 12:13:19;;;;;;;21.27;4.53;;;7.90;87.40;;;;;;5030061;28;20030;-48
2022/01/17 12:16:06;;;;;;;23.83;3.97;;;7.90;87.00;;;;;;5029902;28;20100;-44
2022/01/17 12:18:36;;;;;;;20.98;4.18;;;7.90;86.70;;;;;;5033037;28;20727;-45
2022/01/17 12:21:40;;;;;;;21.90;6.03;;;7.90;86.10;;;;;;5032772;28;20094;-46
2022/01/17 12:24:29;;;;;;;20.55;4.05;;;7.90;85.80;;;;;;5032636;28;20033;-45
2022/01/17 12:27:02;;;;;;;31.90;9.73;;;8.00;85.40;;;;;;5033575;28;20504;-46
2022/01/17 12:29:51;;;;;;;26.63;7.15;;;8.00;85.30;;;;;;5031018;28;20032;-47
2022/01/17 12:32:34;;;;;;;24.13;6.20;;;7.90;85.50;;;;;;5032945;28;20354;-46
2022/01/17 12:35:17;;;;;;;28.17;8.75;;;7.90;85.80;;;;;;5032777;28;20287;-48
2022/01/17 12:38:28;;;;;;;26.45;6.45;;;7.80;85.80;;;;;;5032796;28;20474;-45
2022/01/17 12:40:55;;;;;;;17.70;3.65;;;7.70;85.00;;;;;;5016366;28;20041;-46
2022/01/17 12:43:31;;;;;;;14.20;3.28;;;7.70;84.10;;;;;;5031888;28;20053;-46
2022/01/17 12:46:03;;;;;;;19.92;3.70;;;7.70;83.10;;;;;;5032720;28;20068;-47
2022/01/17 12:48:33;;;;;;;18.95;4.05;;;7.60;83.20;;;;;;5032286;28;20112;-46
2022/01/17 12:51:05;;;;;;;22.30;3.30;;;7.50;83.20;;;;;;5032280;28;20471;-47
2022/01/17 12:53:35;;;;;;;22.45;3.88;;;7.50;83.70;;;;;;5031734;28;20050;-46
2022/01/17 12:56:04;;;;;;;24.42;3.55;;;7.70;84.10;;;;;;5031177;28;20029;-46
2022/01/17 12:58:41;;;;;;;22.45;4.25;;;7.80;83.80;;;;;;5033072;28;20045;-48
2022/01/17 13:01:14;;;;;;;24.00;4.75;;;7.90;83.70;;;;;;5029794;28;20030;-50
2022/01/17 13:03:44;;;;;;;22.13;4.20;;;8.00;83.70;;;;;;5014862;28;20037;-49
2022/01/17 13:06:15;;;;;;;;;;;7.90;83.70;;;;;;5033054;28;20025;-46
2022/01/17 13:08:49;;;;;;;24.23;5.47;;;7.90;84.00;;;;;;5032598;28;19909;-47
2022/01/17 13:11:37;;;;;;;28.02;4.90;;;8.10;83.70;;;;;;5031060;28;20406;-45
2022/01/17 13:14:06;;;;;;;26.10;5.78;;;8.10;82.90;;;;;;5032463;28;20043;-49
2022/01/17 13:16:38;;;;;;;22.70;5.22;;;8.00;82.60;;;;;;5031507;28;20033;-51
2022/01/17 13:19:07;;;;;;;22.85;4.43;;;7.90;82.60;;;;;;5031230;28;20461;-51
2022/01/17 13:21:38;;;;;;;25.45;5.43;;;7.70;82.80;;;;;;5031951;28;20025;-49